sensor_id;sensor_type;location;lat;lon;timestamp;P1;durP1;ratioP1;P2;durP2;ratioP2
47930;SDS011;33697;51.520;9.950;2023-01-10T04:35:53;25.33;;;8.57;;
47930;SDS011;33697;51.520;9.950;2023-01-10T04:38:20;14.13;;;8.20;;
47930;SDS011;33697;51.520;9.950;2023-01-10T04:40:55;18.58;;;7.40;;
47930;SDS011;33697;51.520;9.950;2023-01-10T04:43:23;26.48;;;8.98;;
47930;SDS011;33697;51.520;9.950;2023-01-10T04:45:49;15.38;;;7.32;;
47930;SDS011;33697;51.520;9.950;2023-01-10T04:48:16;23.42;;;6.93;;
47930;SDS011;33697;51.520;9.950;2023-01-10T04:50:47;17.15;;;7.45;;
47930;SDS011;33697;51.520;9.950;2023-01-10T04:53:13;17.65;;;7.18;;
47930;SDS011;33697;51.520;9.950;2023-01-10T04:55:40;15.98;;;7.15;;
47930;SDS011;33697;51.520;9.950;2023-01-10T04:58:06;17.85;;;7.43;;
47930;SDS011;33697;51.520;9.950;2023-01-10T05:00:32;18.33;;;7.78;;
47930;SDS011;33697;51.520;9.950;2023-01-10T05:02:58;27.52;;;7.35;;
47930;SDS011;33697;51.520;9.950;2023-01-10T05:05:25;28.75;;;8.25;;
47930;SDS011;33697;51.520;9.950;2023-01-10T05:07:51;15.77;;;8.25;;
47930;SDS011;33697;51.520;9.950;2023-01-10T05:10:18;22.83;;;7.60;;
47930;SDS011;33697;51.520;9.950;2023-01-10T05:12:44;19.55;;;8.70;;
47930;SDS011;33697;51.520;9.950;2023-01-10T05:15:11;21.70;;;6.55;;
47930;SDS011;33697;51.520;9.950;2023-01-10T05:17:38;32.25;;;9.13;;
47930;SDS011;33697;51.520;9.950;2023-01-10T05:20:04;20.05;;;8.23;;
47930;SDS011;33697;51.520;9.950;2023-01-10T05:22:31;13.27;;;6.10;;
47930;SDS011;33697;51.520;9.950;2023-01-10T05:24:57;24.30;;;6.53;;
47930;SDS011;33697;51.520;9.950;2023-01-10T05:27:24;27.60;;;8.23;;
47930;SDS011;33697;51.520;9.950;2023-01-10T05:29:50;18.58;;;7.93;;
47930;SDS011;33697;51.520;9.950;2023-01-10T05:32:16;18.98;;;6.75;;
47930;SDS011;33697;51.520;9.950;2023-01-10T05:34:43;18.27;;;6.30;;
47930;SDS011;33697;51.520;9.950;2023-01-10T05:37:09;26.17;;;12.00;;
47930;SDS011;33697;51.520;9.950;2023-01-10T05:39:35;17.95;;;6.78;;
47930;SDS011;33697;51.520;9.950;2023-01-10T05:42:02;13.52;;;5.68;;
47930;SDS011;33697;51.520;9.950;2023-01-10T05:44:30;16.45;;;7.00;;
47930;SDS011;33697;51.520;9.950;2023-01-10T05:46:57;18.38;;;5.93;;
47930;SDS011;33697;51.520;9.950;2023-01-10T05:49:23;14.60;;;7.68;;
47930;SDS011;33697;51.520;9.950;2023-01-10T05:51:49;23.63;;;6.97;;
47930;SDS011;33697;51.520;9.950;2023-01-10T05:54:16;22.42;;;7.18;;
47930;SDS011;33697;51.520;9.950;2023-01-10T05:56:42;24.13;;;7.28;;
47930;SDS011;33697;51.520;9.950;2023-01-10T05:59:08;28.60;;;6.85;;
47930;SDS011;33697;51.520;9.950;2023-01-10T06:01:52;16.30;;;6.10;;
47930;SDS011;33697;51.520;9.950;2023-01-10T06:04:19;26.45;;;7.05;;
47930;SDS011;33697;51.520;9.950;2023-01-10T06:06:45;16.05;;;6.53;;
47930;SDS011;33697;51.520;9.950;2023-01-10T06:09:11;18.30;;;6.53;;
47930;SDS011;33697;51.520;9.950;2023-01-10T06:11:38;17.10;;;6.90;;
47930;SDS011;33697;51.520;9.950;2023-01-10T06:14:04;17.83;;;8.15;;
47930;SDS011;33697;51.520;9.950;2023-01-10T06:16:32;26.88;;;7.90;;
47930;SDS011;33697;51.520;9.950;2023-01-10T06:18:58;17.00;;;6.85;;
47930;SDS011;33697;51.520;9.950;2023-01-10T06:21:25;13.45;;;6.43;;
47930;SDS011;33697;51.520;9.950;2023-01-10T06:23:51;18.33;;;6.75;;
47930;SDS011;33697;51.520;9.950;2023-01-10T06:26:17;21.60;;;6.20;;
47930;SDS011;33697;51.520;9.950;2023-01-10T06:28:44;16.25;;;5.68;;
47930;SDS011;33697;51.520;9.950;2023-01-10T06:31:10;20.40;;;6.78;;
47930;SDS011;33697;51.520;9.950;2023-01-10T06:33:36;17.33;;;7.00;;
47930;SDS011;33697;51.520;9.950;2023-01-10T06:36:04;19.95;;;5.28;;
47930;SDS011;33697;51.520;9.950;2023-01-10T06:38:30;17.70;;;6.70;;
47930;SDS011;33697;51.520;9.950;2023-01-10T06:40:56;20.88;;;6.85;;
47930;SDS011;33697;51.520;9.950;2023-01-10T06:43:23;18.15;;;5.05;;
47930;SDS011;33697;51.520;9.950;2023-01-10T06:45:51;15.32;;;4.55;;
47930;SDS011;33697;51.520;9.950;2023-01-10T06:48:17;13.80;;;4.90;;
47930;SDS011;33697;51.520;9.950;2023-01-10T06:50:43;16.15;;;4.22;;
47930;SDS011;33697;51.520;9.950;2023-01-10T06:53:10;12.75;;;4.43;;
47930;SDS011;33697;51.520;9.950;2023-01-10T06:55:36;9.75;;;3.95;;
47930;SDS011;33697;51.520;9.950;2023-01-10T06:58:02;13.75;;;5.22;;
47930;SDS011;33697;51.520;9.950;2023-01-10T07:00:30;16.58;;;4.90;;
47930;SDS011;33697;51.520;9.950;2023-01-10T07:02:57;9.95;;;3.88;;
47930;SDS011;33697;51.520;9.950;2023-01-10T07:05:23;16.52;;;4.97;;
47930;SDS011;33697;51.520;9.950;2023-01-10T07:07:50;16.92;;;6.57;;
47930;SDS011;33697;51.520;9.950;2023-01-10T07:10:16;14.45;;;5.22;;
47930;SDS011;33697;51.520;9.950;2023-01-10T07:12:42;11.73;;;4.65;;
47930;SDS011;33697;51.520;9.950;2023-01-10T07:15:09;13.10;;;5.53;;
47930;SDS011;33697;51.520;9.950;2023-01-10T07:17:35;15.13;;;5.35;;
47930;SDS011;33697;51.520;9.950;2023-01-10T07:20:02;11.30;;;4.63;;
47930;SDS011;33697;51.520;9.950;2023-01-10T07:22:28;10.13;;;4.68;;
47930;SDS011;33697;51.520;9.950;2023-01-10T07:24:55;10.63;;;4.82;;
47930;SDS011;33697;51.520;9.950;2023-01-10T07:27:21;12.63;;;4.10;;
47930;SDS011;33697;51.520;9.950;2023-01-10T07:29:47;18.95;;;4.28;;
47930;SDS011;33697;51.520;9.950;2023-01-10T07:32:14;12.85;;;4.03;;
47930;SDS011;33697;51.520;9.950;2023-01-10T07:34:40;6.55;;;4.53;;
47930;SDS011;33697;51.520;9.950;2023-01-10T07:37:06;14.45;;;4.82;;
47930;SDS011;33697;51.520;9.950;2023-01-10T07:39:33;10.23;;;3.35;;
47930;SDS011;33697;51.520;9.950;2023-01-10T07:41:59;8.15;;;3.45;;
47930;SDS011;33697;51.520;9.950;2023-01-10T07:44:26;6.28;;;2.95;;
47930;SDS011;33697;51.520;9.950;2023-01-10T07:46:52;9.80;;;5.43;;
47930;SDS011;33697;51.520;9.950;2023-01-10T07:49:19;10.52;;;3.85;;
47930;SDS011;33697;51.520;9.950;2023-01-10T07:51:45;9.73;;;3.67;;
47930;SDS011;33697;51.520;9.950;2023-01-10T07:54:11;11.27;;;4.55;;
47930;SDS011;33697;51.520;9.950;2023-01-10T07:56:40;12.05;;;4.25;;
47930;SDS011;33697;51.520;9.950;2023-01-10T07:59:06;8.32;;;3.25;;
47930;SDS011;33697;51.520;9.950;2023-01-10T08:01:32;7.65;;;2.85;;
47930;SDS011;33697;51.520;9.950;2023-01-10T08:04:00;7.75;;;3.38;;
47930;SDS011;33697;51.520;9.950;2023-01-10T08:06:30;12.38;;;4.65;;
47930;SDS011;33697;51.520;9.950;2023-01-10T08:08:58;13.15;;;3.67;;
47930;SDS011;33697;51.520;9.950;2023-01-10T08:11:49;8.77;;;3.38;;
47930;SDS011;33697;51.520;9.950;2023-01-10T08:15:29;14.57;;;5.57;;
47930;SDS011;33697;51.520;9.950;2023-01-10T08:19:09;13.00;;;4.35;;
47930;SDS011;33697;51.520;9.950;2023-01-10T08:22:43;20.13;;;4.05;;
47930;SDS011;33697;51.520;9.950;2023-01-10T08:26:03;10.00;;;3.75;;
47930;SDS011;33697;51.520;9.950;2023-01-10T08:28:50;7.07;;;2.83;;
47930;SDS011;33697;51.520;9.950;2023-01-10T08:32:16;12.68;;;4.53;;
47930;SDS011;33697;51.520;9.950;2023-01-10T08:35:57;14.63;;;3.65;;
47930;SDS011;33697;51.520;9.950;2023-01-10T08:39:27;11.38;;;4.80;;
47930;SDS011;33697;51.520;9.950;2023-01-10T08:43:12;10.45;;;3.90;;
47930;SDS011;33697;51.520;9.950;2023-01-10T08:46:52;14.18;;;2.70;;
47930;SDS011;33697;51.520;9.950;2023-01-10T10:47:33;10.52;;;3.92;;
47930;SDS011;33697;51.520;9.950;2023-01-10T16:40:00;13.35;;;3.63;;
47930;SDS011;33697;51.520;9.950;2023-01-10T16:42:27;12.50;;;4.20;;
47930;SDS011;33697;51.520;9.950;2023-01-10T16:45:12;9.68;;;3.55;;
47930;SDS011;33697;51.520;9.950;2023-01-10T16:47:38;17.27;;;5.25;;
47930;SDS011;33697;51.520;9.950;2023-01-10T16:50:05;9.77;;;2.75;;
47930;SDS011;33697;51.520;9.950;2023-01-10T16:52:31;14.25;;;4.05;;
47930;SDS011;33697;51.520;9.950;2023-01-10T16:54:58;20.20;;;3.30;;
47930;SDS011;33697;51.520;9.950;2023-01-10T16:57:24;11.73;;;3.95;;
47930;SDS011;33697;51.520;9.950;2023-01-10T16:59:51;19.38;;;3.72;;
47930;SDS011;33697;51.520;9.950;2023-01-10T17:02:18;20.40;;;4.43;;
47930;SDS011;33697;51.520;9.950;2023-01-10T17:04:44;13.57;;;3.22;;
47930;SDS011;33697;51.520;9.950;2023-01-10T17:07:11;13.13;;;3.72;;
47930;SDS011;33697;51.520;9.950;2023-01-10T17:09:37;14.10;;;3.40;;
47930;SDS011;33697;51.520;9.950;2023-01-10T17:12:05;18.60;;;3.65;;
47930;SDS011;33697;51.520;9.950;2023-01-10T17:14:35;10.02;;;3.85;;
47930;SDS011;33697;51.520;9.950;2023-01-10T17:17:02;18.80;;;3.03;;
47930;SDS011;33697;51.520;9.950;2023-01-10T17:19:29;17.77;;;4.82;;
47930;SDS011;33697;51.520;9.950;2023-01-10T17:21:55;13.10;;;3.38;;
47930;SDS011;33697;51.520;9.950;2023-01-10T17:24:26;8.32;;;3.40;;
47930;SDS011;33697;51.520;9.950;2023-01-10T17:26:54;9.38;;;2.97;;
47930;SDS011;33697;51.520;9.950;2023-01-10T17:29:22;14.68;;;4.85;;
47930;SDS011;33697;51.520;9.950;2023-01-10T17:31:48;17.20;;;3.50;;
47930;SDS011;33697;51.520;9.950;2023-01-10T17:34:15;15.27;;;3.28;;
47930;SDS011;33697;51.520;9.950;2023-01-10T17:36:41;22.88;;;4.88;;
47930;SDS011;33697;51.520;9.950;2023-01-10T17:39:08;14.20;;;3.72;;
47930;SDS011;33697;51.520;9.950;2023-01-10T17:41:34;8.45;;;2.80;;
47930;SDS011;33697;51.520;9.950;2023-01-10T17:44:08;17.48;;;5.10;;
47930;SDS011;33697;51.520;9.950;2023-01-10T17:46:37;18.48;;;3.15;;
47930;SDS011;33697;51.520;9.950;2023-01-10T17:49:05;16.48;;;4.20;;
47930;SDS011;33697;51.520;9.950;2023-01-10T17:51:31;10.43;;;2.60;;
47930;SDS011;33697;51.520;9.950;2023-01-10T17:53:58;14.48;;;5.13;;
47930;SDS011;33697;51.520;9.950;2023-01-10T17:56:25;21.85;;;3.28;;
47930;SDS011;33697;51.520;9.950;2023-01-10T17:58:51;11.50;;;3.45;;
47930;SDS011;33697;51.520;9.950;2023-01-10T18:01:19;11.38;;;3.00;;
47930;SDS011;33697;51.520;9.950;2023-01-10T18:03:53;11.75;;;2.85;;
47930;SDS011;33697;51.520;9.950;2023-01-10T18:06:20;13.60;;;4.32;;
47930;SDS011;33697;51.520;9.950;2023-01-10T18:08:51;11.73;;;3.17;;
47930;SDS011;33697;51.520;9.950;2023-01-10T18:11:21;9.88;;;3.08;;
47930;SDS011;33697;51.520;9.950;2023-01-10T18:13:50;13.90;;;3.47;;
47930;SDS011;33697;51.520;9.950;2023-01-10T18:16:18;17.17;;;4.15;;
47930;SDS011;33697;51.520;9.950;2023-01-10T18:18:44;12.35;;;3.17;;
47930;SDS011;33697;51.520;9.950;2023-01-10T18:21:14;8.15;;;2.28;;
47930;SDS011;33697;51.520;9.950;2023-01-10T18:23:41;18.45;;;4.95;;
47930;SDS011;33697;51.520;9.950;2023-01-10T18:26:10;11.35;;;3.38;;
47930;SDS011;33697;51.520;9.950;2023-01-10T18:28:43;13.88;;;3.20;;
47930;SDS011;33697;51.520;9.950;2023-01-10T18:31:19;14.13;;;5.00;;
47930;SDS011;33697;51.520;9.950;2023-01-10T18:33:47;20.50;;;3.97;;
47930;SDS011;33697;51.520;9.950;2023-01-10T18:36:40;14.75;;;4.55;;
47930;SDS011;33697;51.520;9.950;2023-01-10T18:39:07;15.00;;;4.40;;
47930;SDS011;33697;51.520;9.950;2023-01-10T18:41:34;12.68;;;3.35;;
47930;SDS011;33697;51.520;9.950;2023-01-10T18:44:01;11.55;;;4.45;;
47930;SDS011;33697;51.520;9.950;2023-01-10T18:46:31;18.80;;;3.60;;
47930;SDS011;33697;51.520;9.950;2023-01-10T18:49:04;23.92;;;4.15;;
47930;SDS011;33697;51.520;9.950;2023-01-10T18:51:31;20.15;;;5.38;;
47930;SDS011;33697;51.520;9.950;2023-01-10T18:53:57;10.80;;;4.55;;
47930;SDS011;33697;51.520;9.950;2023-01-10T18:56:26;17.88;;;5.28;;
47930;SDS011;33697;51.520;9.950;2023-01-10T18:58:52;21.98;;;4.70;;
47930;SDS011;33697;51.520;9.950;2023-01-10T19:01:29;8.93;;;3.63;;
47930;SDS011;33697;51.520;9.950;2023-01-10T19:04:00;16.33;;;5.35;;
47930;SDS011;33697;51.520;9.950;2023-01-10T19:06:26;19.42;;;3.65;;
47930;SDS011;33697;51.520;9.950;2023-01-10T19:08:59;25.42;;;4.38;;
47930;SDS011;33697;51.520;9.950;2023-01-10T19:11:25;25.00;;;5.28;;
47930;SDS011;33697;51.520;9.950;2023-01-10T19:13:54;13.98;;;2.97;;
47930;SDS011;33697;51.520;9.950;2023-01-10T19:16:24;12.25;;;3.95;;
47930;SDS011;33697;51.520;9.950;2023-01-10T19:18:52;20.40;;;5.65;;
47930;SDS011;33697;51.520;9.950;2023-01-10T19:21:22;20.77;;;4.00;;
47930;SDS011;33697;51.520;9.950;2023-01-10T19:23:50;21.77;;;3.55;;
47930;SDS011;33697;51.520;9.950;2023-01-10T19:26:17;16.63;;;4.88;;
